Alice Springs Airport
YBAS : now visible

Airfield :











YOU CAN JOIN US ON...

 
LOGIN :

Register | Disclaimer

   EN    FR    IT 

 









Legend :    VFR   Marginal VFR   IFR   Intensive IFR   Very Intensive IFR
Visi :
Ceiling :
>= 8 km
>= 3000ft
5 to 8 km
1000 to 3000 ft
1500m to 5 km
500 to 1000 ft
800 to 1500m
200 to 500 ft
< 800m
< 200 ft
Symbols :   Thunderstorms  Fog  Heavy snow  Heavy precipitations  Wind > 20 kt






- Airport Elevation : 1789 ft
- IATA code : ASP


YBAS - Alice Springs

CURRENT METAR :
  • 141200Z AUTO 11006KT 9999 // NCD 28/M06 Q1014

EXPIRED METARs :
  • 141130Z AUTO 12007KT 9999 // NCD 29/M06 Q1014 RF00.0/000.0
  • 141100Z AUTO 11005KT 9999 // NCD 29/M06 Q1014
  • 141030Z AUTO 13006KT 9999 // NCD 30/M05 Q1014 RF00.0/000.0
  • 141000Z AUTO 13006KT 9999 // NCD 31/M05 Q1013
  • 140930Z AUTO 12008KT 9999 // NCD 32/M05 Q1013 RF00.0/000.0

TAF TAF YBAS
Valid from the 14 at 12:00 until the 15 at 12:00 UTC


141059Z 1412/1512 11006KT CAVOK
FM142300 12010KT CAVOK



MET'MAP, your aeronautical weather chart ! - Copyright ORBIFLY December 2007 - Disclaimer

ORBIFLY MET'MAP TEAM :

Programming & Development : Alexandra Zaïnal
Concept & original design : Baudouin d'Aumeries
Assistance for programming : Marc-Olivier Méhu
Technical & hardware support : Manuel Goepfert

Contact : metmap@orbifly.com




SOURCES & CREDITS :

   NOAA       Earth
Advisory